Time;durP1;ratioP1;P1;durP2;ratioP2;P2;SDS_P1;SDS_P2;PMS_P1;PMS_P2;Temp;Humidity;BMP_temperature;BMP_pressure;BME280_temperature;BME280_humidity;BME280_pressure;Samples;Min_cycle;Max_cycle;Signal;HPM_P1;HPM_P2
2023/02/02 00:02:16;;;;;;;29.42;4.00;;;4.50;99.90;;;;;;6123996;23;20095;-83
2023/02/02 00:05:16;;;;;;;;;;;;;;;;;;;;;
2023/02/02 00:08:38;;;;;;;43.53;5.53;;;4.40;99.90;;;;;;6122670;23;20022;-83
2023/02/02 00:15:37;;;;;;;;;;;;;;;;;;;;;
2023/02/02 00:22:03;;;;;;;34.70;4.57;;;4.20;99.90;;;;;;5864096;24;20126;-81
2023/02/02 00:32:47;;;;;;;43.15;5.22;;;4.40;99.90;;;;;;5868648;24;20067;-82
2023/02/02 00:35:43;;;;;;;42.00;5.32;;;4.40;99.90;;;;;;5807293;24;20026;-82
2023/02/02 00:39:00;;;;;;;;;;;;;;;;;;;;;
2023/02/02 00:41:31;;;;;;;53.25;6.22;;;4.90;99.90;;;;;;5819408;24;20523;-81
2023/02/02 00:47:18;;;;;;;48.08;5.38;;;4.40;99.90;;;;;;5818067;24;20452;-82
2023/02/02 00:50:32;;;;;;;47.80;5.55;;;4.40;99.90;;;;;;5845237;24;20075;-81
2023/02/02 00:56:43;;;;;;;47.67;5.53;;;4.60;99.90;;;;;;5869722;24;20147;-82
2023/02/02 00:59:30;;;;;;;43.80;5.30;;;4.70;99.90;;;;;;6016984;23;20014;-82
2023/02/02 01:03:10;;;;;;;43.35;4.95;;;4.90;99.90;;;;;;6063934;23;20808;-82
2023/02/02 01:06:13;;;;;;;43.92;5.82;;;4.80;99.90;;;;;;6114853;23;20414;-82
2023/02/02 01:09:16;;;;;;;55.03;5.70;;;4.60;99.90;;;;;;5977455;24;20016;-81
2023/02/02 01:16:15;;;;;;;53.55;6.35;;;4.70;99.90;;;;;;5966369;24;20031;-82
2023/02/02 01:19:20;;;;;;;56.22;5.85;;;5.10;99.90;;;;;;5922609;24;20024;-82
2023/02/02 01:29:37;;;;;;;46.20;5.63;;;5.00;99.90;;;;;;5949129;24;20021;-81
2023/02/02 01:32:46;;;;;;;36.83;4.72;;;5.10;99.90;;;;;;5946411;24;20028;-82
2023/02/02 01:36:16;;;;;;;36.45;5.07;;;5.30;99.90;;;;;;5890722;24;20032;-81
2023/02/02 01:42:27;;;;;;;37.88;4.30;;;5.30;99.90;;;;;;5892135;24;20024;-81
2023/02/02 01:45:49;;;;;;;44.20;5.78;;;4.90;99.90;;;;;;5907535;24;20013;-81
2023/02/02 01:48:55;;;;;;;37.22;4.13;;;4.90;99.90;;;;;;5922802;24;20069;-81
2023/02/02 02:57:48;;;;;;;27.50;4.05;;;5.60;99.90;;;;;;4700817;22;37741434;-82
2023/02/02 03:01:00;;;;;;;40.17;5.10;;;5.30;99.90;;;;;;6287086;22;20046;-82
2023/02/02 03:04:20;;;;;;;;;;;;;;;;;;;;;
2023/02/02 03:07:33;;;;;;;48.08;4.72;;;5.40;99.90;;;;;;6290459;22;20101;-82
2023/02/02 03:13:26;;;;;;;45.13;4.63;;;5.60;99.90;;;;;;6131301;23;20025;-82
2023/02/02 03:16:36;;;;;;;31.40;4.88;;;6.00;99.90;;;;;;6149881;22;20022;-82
2023/02/02 03:19:35;;;;;;;44.85;5.00;;;5.90;99.90;;;;;;6110531;23;20322;-81
2023/02/02 03:59:23;;;;;;;12.60;2.25;;;6.00;99.90;;;;;;6299031;22;20026;-82
2023/02/02 04:02:17;;;;;;;7.00;1.65;;;5.70;99.90;;;;;;6129064;23;20410;-82
2023/02/02 04:42:01;;;;;;;8.82;1.50;;;5.50;99.90;;;;;;6061070;23;20116;-82
2023/02/02 04:45:04;;;;;;;11.85;1.52;;;5.50;99.90;;;;;;6037283;23;20467;-82
2023/02/02 04:47:57;;;;;;;13.25;1.92;;;5.40;99.90;;;;;;6016946;23;20075;-82
2023/02/02 04:50:52;;;;;;;9.75;1.33;;;5.30;99.90;;;;;;6060665;23;20015;-82
2023/02/02 04:53:54;;;;;;;7.00;1.13;;;5.30;99.90;;;;;;6038746;23;20500;-82
2023/02/02 05:04:55;;;;;;;9.65;1.13;;;5.20;99.90;;;;;;6006702;23;20018;-82
2023/02/02 05:08:12;;;;;;;;;;;;;;;;;;;;;
2023/02/02 05:15:14;;;;;;;9.85;1.60;;;5.20;99.90;;;;;;5978882;24;20080;-82
2023/02/02 05:36:34;;;;;;;15.23;1.40;;;5.40;99.90;;;;;;5865916;24;20026;-83
2023/02/02 05:39:41;;;;;;;11.23;1.42;;;5.00;99.90;;;;;;5841010;24;20026;-82
2023/02/02 05:42:37;;;;;;;7.78;1.58;;;5.30;99.90;;;;;;5866990;24;20014;-81
2023/02/02 05:45:43;;;;;;;8.57;1.40;;;4.90;99.90;;;;;;5842604;24;20018;-82
2023/02/02 05:48:45;;;;;;;16.75;1.80;;;5.10;99.90;;;;;;5862704;24;20010;-82
2023/02/02 05:51:56;;;;;;;5.15;1.25;;;5.30;99.90;;;;;;5862480;24;20038;-83
2023/02/02 05:54:57;;;;;;;;;;;;;;;;;;;;;
2023/02/02 06:01:02;;;;;;;9.68;1.73;;;5.30;99.90;;;;;;5866511;24;20017;-81
2023/02/02 06:03:43;;;;;;;8.15;1.40;;;4.90;99.90;;;;;;5918916;23;20527;-82
2023/02/02 06:06:34;;;;;;;13.43;1.88;;;5.40;99.90;;;;;;6003878;23;20469;-82
2023/02/02 06:09:24;;;;;;;8.60;1.38;;;5.40;99.90;;;;;;6002191;23;20734;-81
2023/02/02 06:15:12;;;;;;;9.52;1.98;;;5.30;99.90;;;;;;6119710;23;20029;-82
2023/02/02 06:17:46;;;;;;;12.07;2.10;;;5.00;99.90;;;;;;6070028;23;20093;-82
2023/02/02 06:23:49;;;;;;;12.45;1.67;;;4.90;99.90;;;;;;6119064;23;20030;-81
2023/02/02 06:34:37;;;;;;;17.13;2.42;;;5.50;99.90;;;;;;6273829;22;20011;-82
2023/02/02 06:37:53;;;;;;;9.93;1.52;;;5.30;99.90;;;;;;6217976;22;20030;-82
2023/02/02 06:40:24;;;;;;;17.15;2.25;;;5.20;99.90;;;;;;6062087;23;20073;-81
2023/02/02 06:43:19;;;;;;;9.27;1.45;;;5.10;99.90;;;;;;6065651;23;20073;-81
2023/02/02 06:47:00;;;;;;;;;;;;;;;;;;;;;
2023/02/02 06:49:26;;;;;;;7.05;1.30;;;4.90;99.90;;;;;;6000923;23;20444;-81
2023/02/02 06:51:54;;;;;;;11.07;1.60;;;5.10;99.90;;;;;;5980813;23;20606;-81
2023/02/02 06:54:23;;;;;;;10.35;1.65;;;5.40;99.90;;;;;;5979239;23;20111;-81
2023/02/02 06:56:49;;;;;;;8.95;1.67;;;5.00;99.90;;;;;;5980387;23;20027;-81
2023/02/02 06:59:19;;;;;;;11.13;1.63;;;4.90;99.90;;;;;;5979337;23;20119;-81
2023/02/02 07:02:04;;;;;;;9.35;1.67;;;5.50;99.90;;;;;;5979663;23;20031;-82
2023/02/02 07:04:41;;;;;;;10.10;1.80;;;5.40;99.90;;;;;;6011734;23;20046;-82
2023/02/02 07:07:21;;;;;;;9.27;1.65;;;5.00;99.90;;;;;;6036962;23;20089;-82
2023/02/02 07:09:47;;;;;;;10.38;1.58;;;5.20;99.90;;;;;;6035827;23;20050;-82
2023/02/02 07:16:50;;;;;;;;;;;;;;;;;;;;;
2023/02/02 07:24:32;;;;;;;;;;;;;;;;;;;;;
2023/02/02 07:35:13;;;;;;;11.57;1.88;;;4.90;99.90;;;;;;6029492;23;20010;-82
2023/02/02 07:38:09;;;;;;;13.13;1.58;;;4.90;99.90;;;;;;6005007;23;20019;-82
2023/02/02 07:44:21;;;;;;;9.30;1.75;;;5.40;99.90;;;;;;6031639;23;20058;-81
2023/02/02 07:47:18;;;;;;;13.90;1.58;;;5.10;99.90;;;;;;6000780;23;20022;-81
2023/02/02 07:49:44;;;;;;;7.72;1.55;;;5.10;99.90;;;;;;5918392;24;20486;-79
2023/02/02 07:52:10;;;;;;;7.57;1.75;;;5.10;99.90;;;;;;5899456;24;20472;-81
2023/02/02 07:54:36;;;;;;;10.15;1.60;;;5.00;99.90;;;;;;5920706;24;20009;-81
2023/02/02 07:57:07;;;;;;;7.07;1.83;;;5.40;99.90;;;;;;5897529;24;20018;-82
2023/02/02 07:59:35;;;;;;;8.15;1.98;;;5.60;99.90;;;;;;5925705;23;20027;-80
2023/02/02 08:02:01;;;;;;;8.68;1.92;;;5.60;99.90;;;;;;6006279;23;20102;-85
2023/02/02 08:04:27;;;;;;;7.90;1.65;;;5.20;99.90;;;;;;6010603;23;20015;-84
2023/02/02 08:06:55;;;;;;;8.00;1.77;;;5.70;99.90;;;;;;6036903;23;20411;-83
2023/02/02 08:09:21;;;;;;;11.30;1.80;;;5.60;99.90;;;;;;6012189;23;20019;-82
2023/02/02 08:11:47;;;;;;;8.75;1.85;;;5.30;99.90;;;;;;6038220;23;20038;-84
2023/02/02 08:14:15;;;;;;;9.27;1.63;;;5.70;99.90;;;;;;6037922;23;20026;-82
2023/02/02 08:16:44;;;;;;;9.10;1.80;;;5.10;99.90;;;;;;6011249;23;20019;-83
2023/02/02 08:19:24;;;;;;;8.40;1.75;;;5.70;99.90;;;;;;6038051;23;20018;-81
2023/02/02 08:25:42;;;;;;;9.52;1.40;;;5.30;99.90;;;;;;6030096;23;20023;-80
2023/02/02 08:28:35;;;;;;;8.63;1.42;;;5.80;99.90;;;;;;6121667;23;20014;-80
2023/02/02 08:31:09;;;;;;;13.48;1.95;;;5.80;99.90;;;;;;6121909;23;20422;-80
2023/02/02 08:33:38;;;;;;;12.80;1.80;;;5.30;99.90;;;;;;6125454;23;20017;-80
2023/02/02 08:36:07;;;;;;;8.65;1.70;;;5.40;99.90;;;;;;6126247;23;20120;-80
2023/02/02 08:38:36;;;;;;;7.97;1.70;;;5.70;99.90;;;;;;6125115;23;20426;-80
2023/02/02 08:41:06;;;;;;;12.52;2.20;;;5.40;99.90;;;;;;6122832;23;20025;-79
2023/02/02 08:43:32;;;;;;;7.13;1.40;;;5.30;99.90;;;;;;6121822;23;20156;-81
2023/02/02 08:45:58;;;;;;;12.18;2.00;;;5.40;99.90;;;;;;6122964;23;20044;-80
2023/02/02 08:48:23;;;;;;;8.48;1.95;;;5.90;99.90;;;;;;6143689;23;20055;-80
2023/02/02 08:50:53;;;;;;;12.23;2.28;;;5.80;99.90;;;;;;6147506;23;20083;-82
2023/02/02 08:53:23;;;;;;;9.57;2.40;;;6.00;99.90;;;;;;6120685;23;20785;-83
2023/02/02 08:56:15;;;;;;;12.05;2.38;;;6.00;99.90;;;;;;6148474;23;20018;-85
2023/02/02 08:58:45;;;;;;;10.20;1.80;;;5.50;99.90;;;;;;6147151;23;20442;-84
2023/02/02 09:01:13;;;;;;;9.43;1.75;;;5.60;99.90;;;;;;6159792;23;20078;-84
2023/02/02 09:03:40;;;;;;;5.47;1.95;;;5.50;99.90;;;;;;6214387;23;20031;-84
2023/02/02 09:06:13;;;;;;;6.13;1.52;;;6.00;99.90;;;;;;6240285;22;20604;-82
2023/02/02 09:08:39;;;;;;;6.55;1.50;;;5.60;99.90;;;;;;6213520;23;20008;-81
2023/02/02 09:11:14;;;;;;;8.23;1.60;;;6.20;99.90;;;;;;6214396;23;20093;-84
2023/02/02 09:13:41;;;;;;;3.90;1.35;;;6.00;99.90;;;;;;6213975;23;20041;-87
2023/02/02 09:16:09;;;;;;;9.70;1.60;;;5.80;99.90;;;;;;6190624;23;20016;-83
2023/02/02 09:18:35;;;;;;;6.22;1.60;;;6.30;99.90;;;;;;6215078;23;20082;-84
2023/02/02 09:21:05;;;;;;;6.88;1.60;;;5.80;99.90;;;;;;6189956;23;20012;-83
2023/02/02 09:23:33;;;;;;;7.57;1.80;;;5.80;99.90;;;;;;6242223;23;20301;-80
2023/02/02 09:26:20;;;;;;;9.18;1.65;;;5.80;99.90;;;;;;6215525;23;20027;-83
2023/02/02 09:29:00;;;;;;;5.93;1.50;;;6.10;99.90;;;;;;6215527;23;20447;-85
2023/02/02 09:31:26;;;;;;;9.32;1.92;;;6.40;99.90;;;;;;6190485;23;20100;-81
2023/02/02 09:33:51;;;;;;;5.90;1.50;;;6.40;99.90;;;;;;6188343;23;20016;-81
2023/02/02 09:36:21;;;;;;;6.55;1.42;;;6.20;99.90;;;;;;6215590;23;20437;-77
2023/02/02 09:38:48;;;;;;;9.07;1.50;;;6.60;99.90;;;;;;6208445;23;20099;-82
2023/02/02 09:41:23;;;;;;;7.75;1.63;;;6.00;99.90;;;;;;6183232;23;20064;-84
2023/02/02 09:44:17;;;;;;;9.73;1.77;;;6.00;99.90;;;;;;6184878;23;20012;-82
2023/02/02 09:47:10;;;;;;;8.73;1.80;;;6.20;99.90;;;;;;6184197;23;20035;-83
2023/02/02 09:49:45;;;;;;;9.52;1.50;;;6.40;99.90;;;;;;6184697;23;20017;-80
2023/02/02 09:52:28;;;;;;;8.90;1.60;;;6.20;99.90;;;;;;6211374;23;20055;-80
2023/02/02 09:55:18;;;;;;;6.55;1.20;;;6.70;99.90;;;;;;6158801;23;20017;-83
2023/02/02 09:57:53;;;;;;;7.18;1.60;;;6.10;99.90;;;;;;6181751;23;20038;-85
2023/02/02 10:00:29;;;;;;;7.40;1.95;;;6.70;99.90;;;;;;6211953;23;20099;-81
2023/02/02 10:03:25;;;;;;;9.98;1.45;;;6.50;99.90;;;;;;6186745;23;20393;-82
2023/02/02 10:06:11;;;;;;;8.43;1.67;;;6.20;99.90;;;;;;6184607;23;20072;-80
2023/02/02 10:09:05;;;;;;;8.13;1.65;;;6.80;99.90;;;;;;6212181;23;20487;-82
2023/02/02 10:11:40;;;;;;;3.88;1.30;;;6.40;99.90;;;;;;6182985;23;20020;-81
2023/02/02 10:14:35;;;;;;;8.73;1.52;;;6.90;99.90;;;;;;6182650;23;20017;-82
2023/02/02 10:17:32;;;;;;;7.15;1.50;;;6.30;99.90;;;;;;6180792;23;20035;-81
2023/02/02 10:20:10;;;;;;;7.18;1.40;;;6.70;99.90;;;;;;6155969;23;20020;-85
2023/02/02 10:22:49;;;;;;;9.18;1.50;;;6.60;99.90;;;;;;6205404;22;20115;-83
2023/02/02 10:25:28;;;;;;;11.98;2.08;;;6.90;99.90;;;;;;6184999;23;20013;-83
2023/02/02 10:28:11;;;;;;;8.00;1.42;;;7.00;99.90;;;;;;6190539;23;20013;-83
2023/02/02 10:30:45;;;;;;;12.27;1.85;;;6.60;99.90;;;;;;6186421;23;20539;-83
2023/02/02 10:33:38;;;;;;;11.50;1.40;;;7.10;99.90;;;;;;6183783;23;20016;-83
2023/02/02 10:36:26;;;;;;;6.97;1.50;;;7.00;99.90;;;;;;6158455;23;20020;-83
2023/02/02 10:39:07;;;;;;;10.95;1.70;;;7.10;99.90;;;;;;6183522;23;20021;-83
2023/02/02 10:41:40;;;;;;;7.50;1.85;;;6.60;99.90;;;;;;6183568;23;20021;-84
2023/02/02 10:44:16;;;;;;;8.75;1.80;;;7.00;99.90;;;;;;6210594;23;20013;-83
2023/02/02 10:46:47;;;;;;;11.38;2.00;;;6.80;99.90;;;;;;6184860;23;20017;-84
2023/02/02 10:49:25;;;;;;;10.25;1.85;;;6.60;99.90;;;;;;6211589;23;20015;-84
2023/02/02 10:52:21;;;;;;;6.25;1.77;;;6.60;99.90;;;;;;6186265;23;20012;-83
2023/02/02 10:54:56;;;;;;;;;;;7.10;99.90;;;;;;6186896;23;20290;-83
2023/02/02 10:57:41;;;;;;;14.00;1.90;;;6.90;99.90;;;;;;6185849;23;19924;-82
2023/02/02 11:00:21;;;;;;;;;;;7.10;99.90;;;;;;6186820;23;20082;-82
2023/02/02 11:02:47;;;;;;;7.72;1.45;;;6.70;99.90;;;;;;6185733;23;19923;-83
2023/02/02 11:08:14;;;;;;;8.95;1.83;;;7.00;99.90;;;;;;6212161;23;20036;-79
2023/02/02 11:10:41;;;;;;;12.00;1.98;;;7.10;99.90;;;;;;6212187;23;20024;-81
2023/02/02 11:13:11;;;;;;;8.27;1.95;;;7.10;99.90;;;;;;6212540;23;20024;-81
2023/02/02 11:15:38;;;;;;;10.90;1.85;;;6.80;99.90;;;;;;6186965;23;20098;-81
2023/02/02 11:18:29;;;;;;;8.13;1.85;;;7.00;99.90;;;;;;6185497;23;20094;-81
2023/02/02 11:20:58;;;;;;;9.65;1.85;;;6.60;99.90;;;;;;6211271;23;20167;-83
2023/02/02 11:23:26;;;;;;;10.43;2.03;;;7.10;99.90;;;;;;6186402;23;20740;-83
2023/02/02 11:26:00;;;;;;;12.75;1.85;;;6.70;99.90;;;;;;6181204;23;20016;-81
2023/02/02 11:28:29;;;;;;;13.23;1.85;;;6.90;99.90;;;;;;6208063;23;20340;-81
2023/02/02 11:30:57;;;;;;;8.20;1.85;;;6.80;99.90;;;;;;6207585;23;20020;-80
2023/02/02 11:33:30;;;;;;;8.82;2.03;;;7.10;99.90;;;;;;6182815;23;20455;-80
2023/02/02 11:35:59;;;;;;;11.95;2.00;;;7.00;99.90;;;;;;6186346;23;20321;-79
2023/02/02 11:38:26;;;;;;;11.93;2.00;;;7.00;99.90;;;;;;6184467;23;20430;-80
2023/02/02 11:41:02;;;;;;;8.85;2.15;;;7.20;99.90;;;;;;6184733;23;20056;-80
2023/02/02 11:43:35;;;;;;;13.05;2.42;;;6.70;99.90;;;;;;6186540;23;20059;-83
2023/02/02 11:46:04;;;;;;;10.65;1.80;;;7.20;99.90;;;;;;6211861;23;20142;-82
2023/02/02 11:48:37;;;;;;;7.93;2.13;;;6.80;99.90;;;;;;6183772;23;20013;-80
2023/02/02 11:51:04;;;;;;;9.68;2.10;;;7.30;99.90;;;;;;6208937;23;20013;-82
2023/02/02 11:53:39;;;;;;;10.38;2.00;;;6.80;99.90;;;;;;6160296;23;20445;-80
2023/02/02 11:56:18;;;;;;;;;;;7.30;99.90;;;;;;6210615;23;20016;-82
2023/02/02 11:59:02;;;;;;;9.85;1.95;;;6.80;99.90;;;;;;6181200;23;19912;-83
2023/02/02 12:02:47;;;;;;;;;;;;;;;;;;;;;
2023/02/02 12:09:33;;;;;;;5.93;2.10;;;6.90;99.90;;;;;;5941367;24;20077;-83
2023/02/02 12:16:25;;;;;;;7.97;1.95;;;7.40;99.90;;;;;;5957195;24;20028;-83
2023/02/02 12:19:32;;;;;;;9.90;2.20;;;7.20;99.90;;;;;;5949854;23;20028;-83
2023/02/02 12:22:30;;;;;;;8.38;2.13;;;6.90;99.90;;;;;;5918553;24;20052;-83
2023/02/02 12:25:23;;;;;;;10.68;2.38;;;6.80;99.90;;;;;;5948408;24;20099;-82
2023/02/02 12:28:22;;;;;;;7.93;1.98;;;7.10;99.90;;;;;;5092702;27;20388;-79
2023/02/02 12:31:37;;;;;;;11.13;1.77;;;7.20;99.90;;;;;;5060972;28;20051;-80
2023/02/02 12:34:08;;;;;;;9.43;1.83;;;6.80;99.90;;;;;;5048479;28;20254;-82
2023/02/02 12:37:05;;;;;;;9.82;1.80;;;6.70;99.90;;;;;;5040800;28;20448;-82
2023/02/02 12:39:54;;;;;;;11.13;2.15;;;6.70;99.90;;;;;;5050152;28;20046;-80
2023/02/02 12:42:41;;;;;;;6.97;1.60;;;7.20;99.90;;;;;;5053354;28;20033;-80
2023/02/02 12:45:47;;;;;;;7.63;1.45;;;7.30;99.90;;;;;;5070641;28;20123;-80
2023/02/02 12:49:53;;;;;;;9.88;1.25;;;7.30;99.90;;;;;;5041969;28;20072;-81
2023/02/02 12:52:46;;;;;;;5.88;1.25;;;6.70;99.90;;;;;;4963103;28;20114;-81
2023/02/02 12:55:47;;;;;;;8.35;1.73;;;6.70;99.90;;;;;;4964703;28;20046;-81
2023/02/02 13:02:54;;;;;;;9.82;1.60;;;6.60;99.90;;;;;;4982673;28;20037;-82
2023/02/02 13:06:22;;;;;;;12.73;2.00;;;6.80;99.90;;;;;;4949065;28;20042;-81
2023/02/02 13:09:55;;;;;;;10.68;1.60;;;6.60;99.90;;;;;;4954726;28;20074;-82
2023/02/02 13:23:47;;;;;;;8.73;1.90;;;6.70;99.90;;;;;;4919746;29;20050;-82
2023/02/02 13:27:00;;;;;;;9.38;2.00;;;7.10;99.90;;;;;;4920686;29;20051;-82
2023/02/02 13:29:47;;;;;;;9.20;2.13;;;7.10;99.90;;;;;;4907054;29;20048;-82
2023/02/02 13:32:31;;;;;;;8.65;2.00;;;6.90;99.90;;;;;;4901658;29;20050;-82
2023/02/02 13:35:38;;;;;;;5.03;1.67;;;7.20;99.90;;;;;;4921456;29;20052;-81
2023/02/02 13:38:29;;;;;;;10.00;2.00;;;7.20;99.90;;;;;;4902557;29;21744;-81
2023/02/02 13:45:01;;;;;;;6.38;1.80;;;7.30;99.90;;;;;;4923685;29;20436;-81
2023/02/02 13:48:17;;;;;;;5.88;1.50;;;7.20;99.90;;;;;;4924980;29;21611;-82
2023/02/02 13:51:32;;;;;;;6.90;1.73;;;6.60;99.90;;;;;;4952200;28;20046;-82
2023/02/02 13:54:26;;;;;;;7.05;1.60;;;7.20;99.90;;;;;;4997304;28;20057;-82
2023/02/02 13:57:38;;;;;;;8.65;1.80;;;7.30;99.90;;;;;;4982122;28;20057;-81
2023/02/02 14:00:58;;;;;;;7.45;1.70;;;6.70;99.90;;;;;;4987189;28;20168;-82
2023/02/02 14:03:38;;;;;;;6.30;1.83;;;6.90;99.90;;;;;;4976226;28;20046;-81
2023/02/02 14:06:17;;;;;;;9.80;1.70;;;6.50;99.90;;;;;;4972450;28;20108;-81
2023/02/02 14:08:58;;;;;;;9.45;2.38;;;6.80;99.90;;;;;;4984146;28;20056;-82
2023/02/02 14:11:26;;;;;;;6.95;2.15;;;6.90;99.90;;;;;;4991194;28;20041;-82
2023/02/02 14:16:46;;;;;;;10.27;3.22;;;6.90;99.90;;;;;;5026921;28;20060;-81
2023/02/02 14:19:36;;;;;;;15.50;3.83;;;7.10;99.90;;;;;;5029679;28;20089;-80
2023/02/02 14:22:11;;;;;;;8.23;3.47;;;7.00;99.90;;;;;;4997352;28;20053;-81
2023/02/02 14:24:36;;;;;;;13.68;4.47;;;7.20;99.90;;;;;;5002975;28;20057;-81
2023/02/02 14:27:08;;;;;;;9.23;3.13;;;7.10;99.90;;;;;;5005906;28;20103;-81
2023/02/02 14:29:35;;;;;;;8.07;2.85;;;6.90;99.90;;;;;;4995184;28;20531;-83
2023/02/02 14:32:23;;;;;;;7.47;2.95;;;7.10;99.90;;;;;;5002288;28;20080;-81
2023/02/02 14:34:54;;;;;;;6.72;2.60;;;7.20;99.90;;;;;;5011599;28;20361;-81
2023/02/02 14:37:22;;;;;;;9.77;3.72;;;7.00;99.90;;;;;;4990103;28;20079;-82
2023/02/02 14:40:09;;;;;;;10.05;3.30;;;6.70;99.90;;;;;;5001285;28;21771;-81
2023/02/02 14:45:39;;;;;;;8.38;3.22;;;6.50;99.90;;;;;;5021766;28;20037;-80
2023/02/02 14:48:17;;;;;;;10.82;3.65;;;6.80;99.90;;;;;;4986006;28;20500;-81
2023/02/02 14:50:51;;;;;;;9.63;3.53;;;7.20;99.90;;;;;;4978161;28;20034;-80
2023/02/02 14:53:28;;;;;;;8.40;3.17;;;6.90;99.90;;;;;;5000813;28;20133;-81
2023/02/02 14:55:54;;;;;;;11.73;3.67;;;6.90;99.90;;;;;;4986237;28;20053;-80
2023/02/02 14:58:44;;;;;;;12.38;4.55;;;7.20;99.90;;;;;;5001168;28;20061;-80
2023/02/02 15:01:18;;;;;;;13.55;4.20;;;7.10;99.90;;;;;;4988677;28;20057;-83
2023/02/02 15:04:12;;;;;;;11.93;4.43;;;6.70;99.90;;;;;;4983806;28;20710;-82
2023/02/02 15:06:42;;;;;;;12.10;5.07;;;6.70;99.90;;;;;;4998599;28;20510;-81
2023/02/02 15:09:24;;;;;;;15.02;5.38;;;6.60;99.90;;;;;;4982811;28;20694;-81
2023/02/02 15:12:04;;;;;;;19.05;6.53;;;6.70;99.90;;;;;;4984648;28;20100;-82
2023/02/02 15:14:37;;;;;;;19.98;7.03;;;7.20;99.90;;;;;;5014987;28;20088;-82
2023/02/02 15:17:37;;;;;;;12.40;6.13;;;7.30;99.90;;;;;;4980695;28;20473;-80
2023/02/02 15:20:25;;;;;;;18.45;7.43;;;7.20;99.90;;;;;;4999037;28;20053;-84
2023/02/02 15:23:14;;;;;;;22.20;8.00;;;6.70;99.90;;;;;;4991509;28;20137;-83
2023/02/02 15:26:11;;;;;;;24.73;8.43;;;7.00;99.90;;;;;;5004021;28;20501;-82
2023/02/02 15:28:40;;;;;;;22.05;9.82;;;6.90;99.90;;;;;;4937537;29;20172;-84
2023/02/02 15:31:11;;;;;;;27.67;11.00;;;7.30;99.90;;;;;;4911342;29;20047;-82
2023/02/02 15:34:09;;;;;;;27.73;10.88;;;7.00;99.90;;;;;;4914018;28;20059;-81
2023/02/02 15:36:39;;;;;;;42.63;11.48;;;7.00;99.90;;;;;;4887785;29;20067;-82
2023/02/02 15:39:35;;;;;;;40.90;11.57;;;7.40;99.90;;;;;;4885632;29;20409;-83
2023/02/02 15:46:00;;;;;;;38.58;12.98;;;7.10;99.90;;;;;;4887807;29;20104;-82
2023/02/02 15:48:42;;;;;;;39.45;13.25;;;7.60;99.90;;;;;;4875174;29;20125;-83
2023/02/02 15:51:20;;;;;;;44.17;13.25;;;7.50;99.90;;;;;;4904201;29;20068;-83
2023/02/02 15:53:50;;;;;;;37.35;13.23;;;7.20;99.90;;;;;;4886816;29;20508;-84
2023/02/02 15:56:40;;;;;;;39.13;13.35;;;7.60;99.90;;;;;;4902719;29;20542;-84
2023/02/02 15:59:23;;;;;;;36.47;12.63;;;7.30;99.90;;;;;;4900174;29;20040;-80
2023/02/02 16:01:59;;;;;;;32.85;12.10;;;7.60;99.90;;;;;;4876442;29;20048;-80
2023/02/02 16:04:35;;;;;;;31.33;11.43;;;7.10;99.90;;;;;;4891150;29;20475;-80
2023/02/02 16:07:12;;;;;;;31.05;11.35;;;7.20;99.90;;;;;;4941099;28;20513;-81
2023/02/02 16:09:40;;;;;;;29.73;11.20;;;7.50;99.90;;;;;;4944455;28;20043;-82
2023/02/02 16:12:19;;;;;;;35.00;11.25;;;7.10;99.90;;;;;;4936151;28;20065;-82
2023/02/02 16:14:53;;;;;;;29.77;10.43;;;7.60;99.90;;;;;;5018958;28;20131;-80
2023/02/02 16:17:23;;;;;;;40.80;10.23;;;7.50;99.90;;;;;;4998762;28;20125;-80
2023/02/02 16:19:55;;;;;;;90.65;28.95;;;7.10;99.90;;;;;;4997673;28;20064;-81
2023/02/02 16:22:24;;;;;;;42.95;18.45;;;7.20;99.90;;;;;;5017670;28;20057;-85
2023/02/02 16:25:05;;;;;;;29.75;9.45;;;7.50;99.90;;;;;;5000535;28;20119;-83
2023/02/02 16:27:31;;;;;;;29.67;9.23;;;7.60;99.90;;;;;;5001678;28;20037;-82
2023/02/02 16:30:05;;;;;;;37.83;14.05;;;7.10;99.90;;;;;;5005245;28;20135;-82
2023/02/02 16:32:37;;;;;;;33.95;11.23;;;7.60;99.90;;;;;;5033212;28;20065;-81
2023/02/02 16:35:22;;;;;;;21.77;9.05;;;7.20;99.90;;;;;;5017334;28;20051;-83
2023/02/02 16:37:48;;;;;;;25.30;8.02;;;7.40;99.90;;;;;;5016229;28;20045;-80
2023/02/02 16:40:15;;;;;;;29.70;8.38;;;7.40;99.90;;;;;;5004161;28;20147;-83
2023/02/02 16:42:41;;;;;;;29.00;8.73;;;7.10;99.90;;;;;;5023743;28;20334;-83
2023/02/02 16:45:45;;;;;;;24.95;7.95;;;7.10;99.90;;;;;;5026645;28;20106;-80
2023/02/02 16:48:35;;;;;;;23.27;9.75;;;7.10;99.90;;;;;;5024680;28;20084;-82
2023/02/02 16:51:16;;;;;;;23.35;9.35;;;7.40;99.90;;;;;;5012070;28;20106;-82
2023/02/02 16:54:11;;;;;;;33.70;10.85;;;7.50;99.90;;;;;;5011191;28;20044;-82
2023/02/02 16:56:40;;;;;;;27.77;10.57;;;7.10;99.90;;;;;;5021700;28;20106;-82
2023/02/02 16:59:21;;;;;;;28.85;9.65;;;7.70;99.90;;;;;;5009532;28;21726;-82
2023/02/02 17:02:30;;;;;;;29.63;10.38;;;7.70;99.90;;;;;;5006910;28;20084;-82
2023/02/02 17:05:09;;;;;;;30.83;11.25;;;7.50;99.90;;;;;;4907192;29;20155;-83
2023/02/02 17:07:36;;;;;;;34.58;10.65;;;7.70;99.90;;;;;;4927486;28;20032;-83
2023/02/02 17:10:16;;;;;;;42.00;11.35;;;7.30;99.90;;;;;;4914081;28;20044;-83
2023/02/02 17:12:43;;;;;;;31.20;10.90;;;7.60;99.90;;;;;;4926490;29;20152;-83
2023/02/02 17:15:15;;;;;;;24.77;10.00;;;7.60;99.90;;;;;;4934673;29;20043;-83
2023/02/02 17:17:41;;;;;;;41.13;10.45;;;7.60;99.90;;;;;;4927405;29;20134;-83
2023/02/02 17:21:04;;;;;;;34.67;10.18;;;7.70;99.90;;;;;;4932530;29;20415;-83
2023/02/02 17:24:37;;;;;;;36.10;10.52;;;7.20;99.90;;;;;;4899070;29;20048;-82
2023/02/02 17:27:49;;;;;;;36.15;11.32;;;7.20;99.90;;;;;;4916744;29;20054;-83
2023/02/02 17:31:30;;;;;;;46.03;13.70;;;7.20;99.90;;;;;;4895205;29;20049;-82
2023/02/02 17:37:47;;;;;;;;;;;;;;;;;;;;;
2023/02/02 17:40:29;;;;;;;46.95;15.73;;;7.80;99.90;;;;;;4895773;28;20044;-83
2023/02/02 17:47:23;;;;;;;38.38;10.25;;;7.60;99.90;;;;;;4968730;28;20061;-84
2023/02/02 17:50:21;;;;;;;38.97;9.73;;;7.30;99.90;;;;;;4950400;28;20069;-84
2023/02/02 17:56:54;;;;;;;39.50;9.73;;;7.80;99.90;;;;;;4907574;29;20476;-83
2023/02/02 18:00:19;;;;;;;;;;;;;;;;;;;;;
2023/02/02 18:07:27;;;;;;;37.08;9.07;;;7.20;99.90;;;;;;4840604;29;20166;-83
2023/02/02 18:10:17;;;;;;;42.72;9.75;;;7.40;99.90;;;;;;4859112;29;20125;-82
2023/02/02 18:14:11;;;;;;;44.85;9.32;;;7.20;99.90;;;;;;4820705;29;20058;-83
2023/02/02 18:16:33;;;;;;;35.20;8.70;;;7.80;99.90;;;;;;4835725;29;20057;-82
2023/02/02 18:19:01;;;;;;;31.08;8.23;;;7.20;99.90;;;;;;4834185;29;20050;-82
2023/02/02 18:21:48;;;;;;;35.00;8.50;;;7.40;99.90;;;;;;4818997;29;20041;-83
2023/02/02 18:40:35;;;;;;;;;;;7.40;99.90;;;;;;4821472;29;20061;-83
2023/02/02 18:43:35;;;;;;;29.15;5.50;;;7.60;99.90;;;;;;4799459;29;19921;-83
2023/02/02 18:46:32;;;;;;;28.05;6.60;;;7.40;99.90;;;;;;4812672;29;20050;-82
2023/02/02 18:49:21;;;;;;;34.58;6.55;;;7.80;99.90;;;;;;4821183;29;20069;-82
2023/02/02 18:55:19;;;;;;;27.35;7.05;;;8.00;99.90;;;;;;4758862;29;20221;-82
2023/02/02 18:57:59;;;;;;;33.97;7.20;;;7.40;99.90;;;;;;4775814;29;20047;-82
2023/02/02 19:00:31;;;;;;;28.67;7.35;;;7.80;99.90;;;;;;4759381;29;20039;-83
2023/02/02 19:03:48;;;;;;;;;;;;;;;;;;;;;
2023/02/02 19:10:43;;;;;;;33.85;6.90;;;7.40;99.90;;;;;;4797948;29;20073;-83
2023/02/02 19:13:49;;;;;;;31.55;6.95;;;7.50;99.90;;;;;;4818286;29;20212;-83
2023/02/02 19:20:51;;;;;;;28.10;5.90;;;7.70;99.90;;;;;;4812638;29;20077;-83
2023/02/02 19:23:19;;;;;;;31.80;6.35;;;8.00;99.90;;;;;;4783676;29;20051;-83
2023/02/02 19:25:52;;;;;;;24.35;5.78;;;8.10;99.90;;;;;;4814560;29;20141;-83
2023/02/02 19:28:29;;;;;;;25.85;5.63;;;7.90;99.90;;;;;;4836051;29;20547;-82
2023/02/02 19:31:07;;;;;;;21.02;4.55;;;8.10;99.90;;;;;;4936635;28;20108;-83
2023/02/02 19:33:40;;;;;;;21.33;5.22;;;8.20;99.90;;;;;;4972026;28;20085;-82
2023/02/02 19:37:00;;;;;;;20.90;5.28;;;8.10;99.90;;;;;;4966463;28;20153;-82
2023/02/02 19:39:49;;;;;;;25.13;4.97;;;7.70;99.90;;;;;;4892490;29;20393;-82
2023/02/02 19:42:32;;;;;;;20.73;4.28;;;8.30;99.90;;;;;;4872514;29;20057;-81
2023/02/02 19:45:25;;;;;;;29.77;4.85;;;7.60;99.90;;;;;;4872610;29;20108;-82
2023/02/02 19:51:50;;;;;;;26.08;4.40;;;8.40;99.90;;;;;;4886611;29;20064;-83
2023/02/02 19:54:46;;;;;;;21.20;4.53;;;8.40;99.90;;;;;;4888338;29;20064;-83
2023/02/02 19:57:12;;;;;;;13.68;3.60;;;7.70;99.90;;;;;;4873841;29;20166;-83
2023/02/02 19:59:48;;;;;;;20.02;4.32;;;7.90;99.90;;;;;;4871119;29;20053;-84
2023/02/02 20:02:20;;;;;;;14.75;3.45;;;8.20;99.90;;;;;;4857132;29;20063;-83
2023/02/02 20:05:19;;;;;;;20.50;3.90;;;8.20;99.90;;;;;;4870102;29;20051;-84
2023/02/02 20:09:28;;;;;;;;;;;;;;;;;;;;;
2023/02/02 20:12:37;;;;;;;13.65;2.88;;;8.40;99.90;;;;;;4871763;29;20417;-83
2023/02/02 20:15:51;;;;;;;23.73;3.95;;;8.10;99.90;;;;;;4873955;29;20075;-83
2023/02/02 20:19:21;;;;;;;11.65;2.85;;;8.60;99.90;;;;;;4877018;29;20049;-83
2023/02/02 20:23:23;;;;;;;;;;;;;;;;;;;;;
2023/02/02 20:26:46;;;;;;;13.07;2.55;;;8.40;99.90;;;;;;4857338;29;20057;-84
2023/02/02 20:30:26;;;;;;;;;;;;;;;;;;;;;